»·PEaware :: N3021C KSBD-KEMT

N3021C :: KSBD-KEMT

FLIGHT INFORMATION

Flight Status: Arrived
Operator: Privately registered:
United States
More flights under this callsign
Pilot: Mark B. (9455)
Aircraft: CESSNA 172 SKYHAWK
(C172)
More flights by this aircraft type
Origin: KSBD San Bernardino Intl
United States
Destination: KEMT El Monte
United States
More flights between these airports :: More routes between these airports
Route: PDZ PDZ270R V363 POM
File this flight plan on PilotEdge
Remarks:
Altitude:
(Current/Filed)
4,000ft
Speed:
(Current/Filed)
115kts
Departed: 31-Jul-16 05:38 PM
Arrived: 31-Jul-16 06:13 PM
Distance/Time
Traveled:
40nm/0:34
Distance/Time
To Go:
Arrived

Flight Plot

Page will automatically refresh every two minutes.


Map Options




Map Legend


Flown Route
Filed Route
Departure Airport
Arrival Airport
Navaid (VOR, NDB)
Fix

Horizontal Profiles

Position Reports

Time Latitude Longitude Heading Altitude Ground
Speed
31-Jul-16 16:56 34.101709 -117.223361 180 1149ft 0kts
31-Jul-16 16:57 34.101709 -117.223361 180 1149ft 0kts
31-Jul-16 16:58 34.101709 -117.223361 180 1149ft 0kts
31-Jul-16 16:59 34.101709 -117.223361 180 1149ft 0kts
31-Jul-16 17:00 34.101709 -117.223361 180 1149ft 0kts
31-Jul-16 17:01 34.101709 -117.223361 180 1149ft 0kts
31-Jul-16 17:02 34.101709 -117.223361 180 1149ft 0kts
31-Jul-16 17:03 34.101709 -117.223361 180 1149ft 0kts
31-Jul-16 17:04 34.101709 -117.223361 180 1149ft 0kts
31-Jul-16 17:05 34.101709 -117.223361 180 1149ft 0kts
31-Jul-16 17:06 34.101709 -117.223361 180 1149ft 0kts
31-Jul-16 17:07 34.101709 -117.223361 180 1149ft 0kts
31-Jul-16 17:08 34.101709 -117.223361 180 1149ft 0kts
31-Jul-16 17:09 34.101709 -117.223361 180 1149ft 0kts
31-Jul-16 17:10 34.101709 -117.223361 180 1149ft 0kts
31-Jul-16 17:11 34.101709 -117.223361 180 1149ft 0kts
31-Jul-16 17:12 34.101709 -117.223361 180 1149ft 0kts
31-Jul-16 17:13 34.101709 -117.223361 180 1149ft 0kts
31-Jul-16 17:14 34.101709 -117.223361 180 1149ft 0kts
31-Jul-16 17:15 34.101709 -117.223361 180 1149ft 0kts
31-Jul-16 17:16 34.101709 -117.223361 180 1149ft 0kts
31-Jul-16 17:17 34.101709 -117.223361 180 1149ft 0kts
31-Jul-16 17:18 34.101709 -117.223361 180 1149ft 0kts
31-Jul-16 17:19 34.101709 -117.223361 180 1149ft 0kts
31-Jul-16 17:20 34.101709 -117.223361 180 1149ft 0kts
31-Jul-16 17:21 34.101709 -117.223361 180 1149ft 0kts
31-Jul-16 17:22 34.101709 -117.223361 180 1149ft 0kts
31-Jul-16 17:23 34.101519 -117.223073 83 1150ft 12kts
31-Jul-16 17:24 34.100858 -117.219855 160 1159ft 0kts
31-Jul-16 17:25 34.100858 -117.219855 160 1159ft 0kts
31-Jul-16 17:26 34.100858 -117.219855 160 1159ft 0kts
31-Jul-16 17:27 34.100858 -117.219855 160 1159ft 0kts
31-Jul-16 17:28 34.100858 -117.219855 160 1159ft 0kts
31-Jul-16 17:29 34.100858 -117.219855 160 1159ft 0kts
31-Jul-16 17:30 34.100858 -117.219855 160 1159ft 0kts
31-Jul-16 17:31 34.100834 -117.219845 159 1159ft 0kts
31-Jul-16 17:32 34.099510 -117.220831 248 1156ft 49kts
31-Jul-16 17:33 34.092439 -117.242313 240 1820ft 88kts
31-Jul-16 17:34 34.071506 -117.265894 239 2985ft 92kts
31-Jul-16 17:35 34.060549 -117.287330 235 3815ft 89kts
31-Jul-16 17:36 34.046536 -117.312750 235 4711ft 92kts
31-Jul-16 17:37 34.032444 -117.338745 235 5579ft 92kts
31-Jul-16 17:38 34.019440 -117.367781 243 5982ft 105kts
31-Jul-16 17:39 34.002933 -117.398520 235 6041ft 110kts
31-Jul-16 17:40 33.984277 -117.428413 230 6056ft 113kts
31-Jul-16 17:41 33.963414 -117.457527 236 6036ft 111kts
31-Jul-16 17:42 33.944126 -117.486804 228 6062ft 111kts
31-Jul-16 17:43 33.925390 -117.517374 248 6012ft 115kts
31-Jul-16 17:44 33.922855 -117.553591 289 5478ft 113kts
31-Jul-16 17:45 33.942155 -117.582194 318 4859ft 112kts
31-Jul-16 17:46 33.966846 -117.605136 314 4212ft 112kts
31-Jul-16 17:47 33.985781 -117.631047 305 4015ft 97kts
31-Jul-16 17:48 34.000116 -117.657146 304 3998ft 90kts
31-Jul-16 17:49 34.014552 -117.679952 314 4062ft 87kts
31-Jul-16 17:50 34.029234 -117.703998 296 4043ft 90kts
31-Jul-16 17:51 34.043043 -117.728793 307 4033ft 90kts
31-Jul-16 17:52 34.057082 -117.753207 300 4031ft 86kts
31-Jul-16 17:53 34.070818 -117.777580 312 3999ft 87kts
31-Jul-16 17:54 34.078970 -117.802681 261 3910ft 86kts
31-Jul-16 17:55 34.081502 -117.831978 271 3760ft 92kts
31-Jul-16 17:56 34.081578 -117.861481 270 3560ft 87kts
31-Jul-16 17:57 34.083085 -117.891058 270 3021ft 89kts
31-Jul-16 17:58 34.084357 -117.918009 283 2851ft 87kts
31-Jul-16 17:59 34.086416 -117.946382 268 2329ft 89kts
31-Jul-16 18:00 34.083430 -117.977015 254 1643ft 90kts
31-Jul-16 18:01 34.071187 -118.001017 226 1309ft 76kts
31-Jul-16 18:02 34.057797 -118.019926 264 1368ft 75kts
31-Jul-16 18:03 34.074837 -118.018995 31 1483ft 82kts
31-Jul-16 18:04 34.095712 -118.007259 25 1393ft 70kts
31-Jul-16 18:05 34.107168 -118.016942 274 1086ft 61kts
31-Jul-16 18:06 34.095354 -118.029793 203 557ft 59kts
31-Jul-16 18:07 34.085100 -118.034520 158 287ft 7kts
31-Jul-16 18:08 34.084762 -118.034498 196 287ft 0kts
31-Jul-16 18:09 34.084762 -118.034498 196 287ft 0kts
31-Jul-16 18:10 34.084762 -118.034498 196 287ft 0kts
31-Jul-16 18:11 34.084762 -118.034498 196 287ft 0kts

Navigation Log

Ident Type
Flight plan parsing failed, navigation log unavailable